Harrisville, MI

6:29 AM EDT on October 25, 2014 (GMT -0400)
RAWS BARTON CITY MI US | Change Station
CLOSE
Current Station
Personal Weather Station
Location: Barton City, MI
Elevation: 833 ft
Nearby Weather Stations

Elev 833 ft 44.66 °N, 83.59 °W | Updated 43 minutes ago

Overcast
Overcast
47 °F
Feels Like 45 °F
N
5
Wind Variable Wind from SW
Gusts 8.0 mph

Today
High -- | Low -- °F
--% Chance of Precip.
Yesterday
High -- | Low -- °F
Precip. -- in
8:01 AM 6:32 PM
New Moon, 2% visible
Pressure 29.73 in
Visibility 4.0 miles
Clouds Mostly Cloudy 4700 ft
Mostly Cloudy 5000 ft
Overcast 7500 ft
Windchill 45 °F
Dew Point 46 °F
Humidity 97%
Rainfall 0.00 in
Snow Depth Not available.
UV 0 out of 12
Pollen .60 out of 12
Ozone Good
PM2.5 Good
Flu Activity Sporadic
METAR KOSC 251014Z AUTO 23012KT 4SM BR BKN047 BKN050 OVC075 08/08 A2973 RMK AO2 T00900085

More Conditions Fewer Conditions

Pressure 29.73 in
Visibility 4.0 miles
Clouds Mostly Cloudy 4700 ft
Mostly Cloudy 5000 ft
Overcast 7500 ft
Windchill 45 °F
Dew Point 46 °F
Humidity 97%
Rainfall 0.00 in
Snow Depth Not available.
UV 0 out of 12
Pollen .60 out of 12
Ozone Good
PM2.5 Good
Flu Activity Sporadic
METAR KOSC 251014Z AUTO 23012KT 4SM BR BKN047 BKN050 OVC075 08/08 A2973 RMK AO2 T00900085

More Conditions Fewer Conditions

Nowcast | as of 6:00 am EDT on October 25, 2014

At 7 am...cloudy. Temperature 46. Southwest winds 9 mph. At 9 am...cloudy. Temperature 49. West winds 10 mph. At 11 am...mostly cloudy. Temperature 55. West winds 15 mph. At 1 PM...partly cloudy. Temperature 59. West winds 18 mph with gusts to 30 mph.

×

10-Day Weather Forecast

Almanac

Astronomy

Oct. 25, 2014 Rise Set
Actual Time 8:01 AM EDT 6:32 PM EDT
Civil Twilight 7:31 AM EDT 7:02 PM EDT
Nautical Twilight 6:57 AM EDT 7:36 PM EDT
Astronomical Twilight 6:23 AM EDT 8:10 PM EDT
Moon 9:42 AM EDT 7:51 PM EDT
Length of Visible Light 11h 30m
Length of Day
10h 30m
Tomorrow will be 2m 51s shorter.
New Moon, 2% of the Moon is Illuminated
Today
New Moon
Oct 30
First Quarter
Nov 6
Full
Nov 14
Last Quarter
Nov 22
New

Today's Extremes

State Highs State Lows

Community

WunderPhotos

Upload Photos

1,764,806 photos uploaded!

Nearby

Air Quality

  Air Quality AQ Index Pollutant
Yesterday Good
PM2.5
Yesterday Good
OZONE
Current Good
PM2.5
Current Good
OZONE
Saturday Good
PM2.5
Sunday Good
PM2.5
Monday Good
PM2.5

Snow Depth

Station Depth Elevation
No new snow has been reported.

Earthquake Activity

City Distance Mag. Time & Date
No recent earthquake activity has been reported nearby.
Minimum magnitude displayed is 2.5.

Coastal Water Temperatures

Place Temperature
Alpena, MI 55.0 °F

Nearby Weather Stations